sensor_id;sensor_type;location;lat;lon;timestamp;pressure;altitude;pressure_sealevel;temperature;humidity
83843;BME280;73869;52.336;21.182;2023-11-21T00:02:18;100007.25;;;0.81;82.45
83843;BME280;73869;52.336;21.182;2023-11-21T00:04:44;100006.22;;;0.82;82.50
83843;BME280;73869;52.336;21.182;2023-11-21T00:07:12;100010.91;;;0.80;82.90
83843;BME280;73869;52.336;21.182;2023-11-21T00:09:40;100020.28;;;0.76;83.08
83843;BME280;73869;52.336;21.182;2023-11-21T00:12:07;100015.44;;;0.72;83.05
83843;BME280;73869;52.336;21.182;2023-11-21T00:14:35;100017.94;;;0.73;82.72
83843;BME280;73869;52.336;21.182;2023-11-21T00:17:02;100025.63;;;0.76;82.72
83843;BME280;73869;52.336;21.182;2023-11-21T00:19:30;100026.94;;;0.72;82.72
83843;BME280;73869;52.336;21.182;2023-11-21T00:21:57;100035.63;;;0.74;82.42
83843;BME280;73869;52.336;21.182;2023-11-21T00:24:25;100031.28;;;0.73;82.62
83843;BME280;73869;52.336;21.182;2023-11-21T00:26:52;100024.25;;;0.64;83.34
83843;BME280;73869;52.336;21.182;2023-11-21T00:29:19;100029.44;;;0.58;82.79
83843;BME280;73869;52.336;21.182;2023-11-21T00:31:45;100033.13;;;0.57;83.02
83843;BME280;73869;52.336;21.182;2023-11-21T00:34:12;100027.94;;;0.55;83.71
83843;BME280;73869;52.336;21.182;2023-11-21T00:36:41;100041.63;;;0.52;83.40
83843;BME280;73869;52.336;21.182;2023-11-21T00:39:07;100046.81;;;0.54;82.47
83843;BME280;73869;52.336;21.182;2023-11-21T00:41:34;100050.81;;;0.58;82.46
83843;BME280;73869;52.336;21.182;2023-11-21T00:44:02;100048.97;;;0.58;82.33
83843;BME280;73869;52.336;21.182;2023-11-21T00:46:28;100042.63;;;0.59;82.38
83843;BME280;73869;52.336;21.182;2023-11-21T00:48:55;100047.78;;;0.61;82.55
83843;BME280;73869;52.336;21.182;2023-11-21T00:51:22;100041.63;;;0.60;82.53
83843;BME280;73869;52.336;21.182;2023-11-21T00:53:51;100043.97;;;0.63;82.49
83843;BME280;73869;52.336;21.182;2023-11-21T00:56:18;100052.16;;;0.62;82.42
83843;BME280;73869;52.336;21.182;2023-11-21T00:58:45;100045.97;;;0.61;82.33
83843;BME280;73869;52.336;21.182;2023-11-21T01:01:15;100049.31;;;0.63;82.48
83843;BME280;73869;52.336;21.182;2023-11-21T01:03:42;100052.16;;;0.62;82.36
83843;BME280;73869;52.336;21.182;2023-11-21T01:06:09;100047.63;;;0.62;82.15
83843;BME280;73869;52.336;21.182;2023-11-21T01:08:36;100039.31;;;0.57;82.89
83843;BME280;73869;52.336;21.182;2023-11-21T01:11:05;100050.97;;;0.56;82.44
83843;BME280;73869;52.336;21.182;2023-11-21T01:13:33;100049.47;;;0.54;83.05
83843;BME280;73869;52.336;21.182;2023-11-21T01:16:01;100044.94;;;0.54;82.34
83843;BME280;73869;52.336;21.182;2023-11-21T01:18:28;100053.47;;;0.50;83.20
83843;BME280;73869;52.336;21.182;2023-11-21T01:20:55;100048.97;;;0.50;82.40
83843;BME280;73869;52.336;21.182;2023-11-21T01:23:21;100046.13;;;0.52;82.23
83843;BME280;73869;52.336;21.182;2023-11-21T01:25:49;100053.47;;;0.50;82.20
83843;BME280;73869;52.336;21.182;2023-11-21T01:28:18;100061.31;;;0.51;81.90
83843;BME280;73869;52.336;21.182;2023-11-21T01:30:45;100068.50;;;0.51;82.61
83843;BME280;73869;52.336;21.182;2023-11-21T01:33:12;100062.50;;;0.49;82.18
83843;BME280;73869;52.336;21.182;2023-11-21T01:35:41;100058.63;;;0.51;81.90
83843;BME280;73869;52.336;21.182;2023-11-21T01:38:08;100064.81;;;0.52;82.16
83843;BME280;73869;52.336;21.182;2023-11-21T01:40:34;100068.19;;;0.54;82.13
83843;BME280;73869;52.336;21.182;2023-11-21T01:43:01;100069.16;;;0.53;82.14
83843;BME280;73869;52.336;21.182;2023-11-21T01:45:30;100070.00;;;0.53;82.18
83843;BME280;73869;52.336;21.182;2023-11-21T01:47:59;100078.88;;;0.54;81.90
83843;BME280;73869;52.336;21.182;2023-11-21T01:50:27;100079.84;;;0.53;82.38
83843;BME280;73869;52.336;21.182;2023-11-21T01:52:54;100078.03;;;0.53;82.92
83843;BME280;73869;52.336;21.182;2023-11-21T01:55:22;100078.84;;;0.46;82.82
83843;BME280;73869;52.336;21.182;2023-11-21T01:57:49;100077.47;;;0.42;82.71
83843;BME280;73869;52.336;21.182;2023-11-21T02:00:16;100074.66;;;0.43;82.50
83843;BME280;73869;52.336;21.182;2023-11-21T02:02:47;100076.19;;;0.46;82.53
83843;BME280;73869;52.336;21.182;2023-11-21T02:05:14;100076.66;;;0.49;82.05
83843;BME280;73869;52.336;21.182;2023-11-21T02:07:42;100071.81;;;0.53;81.39
83843;BME280;73869;52.336;21.182;2023-11-21T02:10:10;100071.19;;;0.51;82.21
83843;BME280;73869;52.336;21.182;2023-11-21T02:12:40;100071.81;;;0.45;82.65
83843;BME280;73869;52.336;21.182;2023-11-21T02:15:08;100078.66;;;0.39;82.28
83843;BME280;73869;52.336;21.182;2023-11-21T02:17:41;100084.97;;;0.38;82.90
83843;BME280;73869;52.336;21.182;2023-11-21T02:20:11;100086.63;;;0.31;83.37
83843;BME280;73869;52.336;21.182;2023-11-21T02:22:42;100087.47;;;0.32;82.66
83843;BME280;73869;52.336;21.182;2023-11-21T02:25:11;100089.94;;;0.25;83.61
83843;BME280;73869;52.336;21.182;2023-11-21T02:27:37;100090.28;;;0.22;83.27
83843;BME280;73869;52.336;21.182;2023-11-21T02:30:05;100087.94;;;0.19;82.61
83843;BME280;73869;52.336;21.182;2023-11-21T02:32:33;100086.75;;;0.22;82.90
83843;BME280;73869;52.336;21.182;2023-11-21T02:35:00;100086.31;;;0.26;82.72
83843;BME280;73869;52.336;21.182;2023-11-21T02:37:28;100090.31;;;0.30;82.15
83843;BME280;73869;52.336;21.182;2023-11-21T02:39:54;100086.13;;;0.28;82.76
83843;BME280;73869;52.336;21.182;2023-11-21T02:42:23;100091.78;;;0.25;82.72
83843;BME280;73869;52.336;21.182;2023-11-21T02:44:49;100097.28;;;0.23;82.25
83843;BME280;73869;52.336;21.182;2023-11-21T02:47:16;100094.44;;;0.25;82.44
83843;BME280;73869;52.336;21.182;2023-11-21T02:49:43;100093.47;;;0.26;82.60
83843;BME280;73869;52.336;21.182;2023-11-21T02:52:10;100098.97;;;0.24;83.14
83843;BME280;73869;52.336;21.182;2023-11-21T02:54:36;100103.63;;;0.22;82.78
83843;BME280;73869;52.336;21.182;2023-11-21T02:57:04;100101.13;;;0.21;82.34
83843;BME280;73869;52.336;21.182;2023-11-21T02:59:32;100113.00;;;0.26;82.64
83843;BME280;73869;52.336;21.182;2023-11-21T03:02:00;100103.66;;;0.30;81.74
83843;BME280;73869;52.336;21.182;2023-11-21T03:04:27;100105.97;;;0.25;83.07
83843;BME280;73869;52.336;21.182;2023-11-21T03:06:53;100113.63;;;0.20;82.42
83843;BME280;73869;52.336;21.182;2023-11-21T03:09:20;100113.94;;;0.17;82.87
83843;BME280;73869;52.336;21.182;2023-11-21T03:11:47;100110.91;;;0.12;82.48
83843;BME280;73869;52.336;21.182;2023-11-21T03:14:14;100115.13;;;0.15;83.01
83843;BME280;73869;52.336;21.182;2023-11-21T03:16:42;100111.59;;;0.14;82.86
83843;BME280;73869;52.336;21.182;2023-11-21T03:19:10;100121.28;;;0.15;82.92
83843;BME280;73869;52.336;21.182;2023-11-21T03:21:37;100115.94;;;0.15;82.95
83843;BME280;73869;52.336;21.182;2023-11-21T03:24:04;100116.63;;;0.17;82.35
83843;BME280;73869;52.336;21.182;2023-11-21T03:26:32;100123.50;;;0.20;82.04
83843;BME280;73869;52.336;21.182;2023-11-21T03:28:59;100122.44;;;0.13;82.63
83843;BME280;73869;52.336;21.182;2023-11-21T03:31:26;100125.59;;;0.08;82.73
83843;BME280;73869;52.336;21.182;2023-11-21T03:33:55;100133.63;;;0.08;83.10
83843;BME280;73869;52.336;21.182;2023-11-21T03:36:22;100130.63;;;0.11;82.31
83843;BME280;73869;52.336;21.182;2023-11-21T03:38:52;100127.47;;;0.16;82.04
83843;BME280;73869;52.336;21.182;2023-11-21T03:41:19;100128.97;;;0.18;82.18
83843;BME280;73869;52.336;21.182;2023-11-21T03:43:46;100130.66;;;0.19;82.48
83843;BME280;73869;52.336;21.182;2023-11-21T03:46:13;100136.00;;;0.19;82.63
83843;BME280;73869;52.336;21.182;2023-11-21T03:48:41;100136.97;;;0.18;82.54
83843;BME280;73869;52.336;21.182;2023-11-21T03:51:10;100136.00;;;0.19;82.74
83843;BME280;73869;52.336;21.182;2023-11-21T03:53:36;100134.00;;;0.21;82.58
83843;BME280;73869;52.336;21.182;2023-11-21T03:56:04;100143.00;;;0.20;82.87
83843;BME280;73869;52.336;21.182;2023-11-21T03:58:32;100141.66;;;0.16;82.90
83843;BME280;73869;52.336;21.182;2023-11-21T04:00:59;100141.50;;;0.18;82.52
83843;BME280;73869;52.336;21.182;2023-11-21T04:03:27;100142.03;;;0.21;82.34
83843;BME280;73869;52.336;21.182;2023-11-21T04:05:53;100147.34;;;0.21;82.14
83843;BME280;73869;52.336;21.182;2023-11-21T04:08:21;100149.03;;;0.22;82.38
83843;BME280;73869;52.336;21.182;2023-11-21T04:10:48;100148.19;;;0.22;82.54
83843;BME280;73869;52.336;21.182;2023-11-21T04:13:15;100147.34;;;0.21;82.37
83843;BME280;73869;52.336;21.182;2023-11-21T04:15:42;100150.53;;;0.25;81.68
83843;BME280;73869;52.336;21.182;2023-11-21T04:18:08;100157.03;;;0.22;82.44
83843;BME280;73869;52.336;21.182;2023-11-21T04:20:35;100155.66;;;0.18;82.99
83843;BME280;73869;52.336;21.182;2023-11-21T04:23:02;100150.81;;;0.14;82.70
83843;BME280;73869;52.336;21.182;2023-11-21T04:25:31;100162.16;;;0.16;82.40
83843;BME280;73869;52.336;21.182;2023-11-21T04:27:58;100158.34;;;0.18;82.32
83843;BME280;73869;52.336;21.182;2023-11-21T04:30:24;100156.84;;;0.16;82.86
83843;BME280;73869;52.336;21.182;2023-11-21T04:32:51;100160.66;;;0.13;83.14
83843;BME280;73869;52.336;21.182;2023-11-21T04:35:18;100167.69;;;0.14;82.44
83843;BME280;73869;52.336;21.182;2023-11-21T04:37:45;100169.50;;;0.14;82.65
83843;BME280;73869;52.336;21.182;2023-11-21T04:40:13;100162.34;;;0.14;82.69
83843;BME280;73869;52.336;21.182;2023-11-21T04:42:41;100167.34;;;0.17;82.24
83843;BME280;73869;52.336;21.182;2023-11-21T04:45:08;100173.69;;;0.16;82.63
83843;BME280;73869;52.336;21.182;2023-11-21T04:47:37;100171.34;;;0.13;82.35
83843;BME280;73869;52.336;21.182;2023-11-21T04:50:05;100171.34;;;0.13;83.04
83843;BME280;73869;52.336;21.182;2023-11-21T04:52:32;100170.34;;;0.14;82.52
83843;BME280;73869;52.336;21.182;2023-11-21T04:54:59;100177.34;;;0.15;82.94
83843;BME280;73869;52.336;21.182;2023-11-21T04:57:27;100182.22;;;0.20;82.22
83843;BME280;73869;52.336;21.182;2023-11-21T04:59:56;100184.75;;;0.21;82.41
83843;BME280;73869;52.336;21.182;2023-11-21T05:02:23;100189.25;;;0.21;82.48
83843;BME280;73869;52.336;21.182;2023-11-21T05:04:49;100193.72;;;0.20;82.53
83843;BME280;73869;52.336;21.182;2023-11-21T05:07:16;100195.50;;;0.12;83.32
83843;BME280;73869;52.336;21.182;2023-11-21T05:09:43;100203.69;;;0.10;83.20
83843;BME280;73869;52.336;21.182;2023-11-21T05:12:11;100204.16;;;0.06;83.57
83843;BME280;73869;52.336;21.182;2023-11-21T05:14:41;100212.50;;;0.03;83.15
83843;BME280;73869;52.336;21.182;2023-11-21T05:17:10;100198.28;;;0.02;83.20
83843;BME280;73869;52.336;21.182;2023-11-21T05:19:36;100209.50;;;0.06;83.14
83843;BME280;73869;52.336;21.182;2023-11-21T05:22:04;100200.16;;;0.02;83.24
83843;BME280;73869;52.336;21.182;2023-11-21T05:24:31;100210.81;;;0.02;83.22
83843;BME280;73869;52.336;21.182;2023-11-21T05:26:58;100205.31;;;0.03;83.12
83843;BME280;73869;52.336;21.182;2023-11-21T05:29:25;100207.31;;;0.01;82.98
83843;BME280;73869;52.336;21.182;2023-11-21T05:31:52;100224.78;;;-0.05;83.25
83843;BME280;73869;52.336;21.182;2023-11-21T05:34:20;100217.78;;;-0.06;83.54
83843;BME280;73869;52.336;21.182;2023-11-21T05:36:49;100211.44;;;-0.05;83.18
83843;BME280;73869;52.336;21.182;2023-11-21T05:39:16;100217.78;;;-0.06;83.50
83843;BME280;73869;52.336;21.182;2023-11-21T05:41:44;100218.47;;;-0.04;82.85
83843;BME280;73869;52.336;21.182;2023-11-21T05:44:10;100226.16;;;-0.01;82.64
83843;BME280;73869;52.336;21.182;2023-11-21T05:46:40;100224.66;;;0.05;82.33
83843;BME280;73869;52.336;21.182;2023-11-21T05:49:08;100220.00;;;0.07;81.59
83843;BME280;73869;52.336;21.182;2023-11-21T05:51:37;100231.38;;;0.09;82.06
83843;BME280;73869;52.336;21.182;2023-11-21T05:54:04;100229.94;;;-0.03;82.91
83843;BME280;73869;52.336;21.182;2023-11-21T05:56:31;100232.78;;;-0.05;82.84
83843;BME280;73869;52.336;21.182;2023-11-21T05:58:58;100238.44;;;-0.08;83.02
83843;BME280;73869;52.336;21.182;2023-11-21T06:01:25;100244.25;;;-0.12;82.80
83843;BME280;73869;52.336;21.182;2023-11-21T06:03:53;100240.56;;;-0.11;82.99
83843;BME280;73869;52.336;21.182;2023-11-21T06:06:20;100257.59;;;-0.12;82.85
83843;BME280;73869;52.336;21.182;2023-11-21T06:08:49;100253.53;;;-0.16;82.63
83843;BME280;73869;52.336;21.182;2023-11-21T06:11:16;100257.75;;;-0.14;83.11
83843;BME280;73869;52.336;21.182;2023-11-21T06:13:44;100255.31;;;-0.07;82.55
83843;BME280;73869;52.336;21.182;2023-11-21T06:16:10;100261.44;;;-0.07;82.38
83843;BME280;73869;52.336;21.182;2023-11-21T06:18:38;100256.44;;;-0.10;82.90
83843;BME280;73869;52.336;21.182;2023-11-21T06:21:06;100267.25;;;-0.11;82.30
83843;BME280;73869;52.336;21.182;2023-11-21T06:23:36;100272.28;;;-0.08;83.12
83843;BME280;73869;52.336;21.182;2023-11-21T06:26:04;100274.59;;;-0.13;82.89
83843;BME280;73869;52.336;21.182;2023-11-21T06:28:31;100276.59;;;-0.15;82.65
83843;BME280;73869;52.336;21.182;2023-11-21T06:30:58;100285.72;;;-0.18;83.17
83843;BME280;73869;52.336;21.182;2023-11-21T06:33:30;100279.56;;;-0.18;83.14
83843;BME280;73869;52.336;21.182;2023-11-21T06:35:57;100290.91;;;-0.16;83.39
83843;BME280;73869;52.336;21.182;2023-11-21T06:38:23;100282.47;;;-0.12;82.90
83843;BME280;73869;52.336;21.182;2023-11-21T06:40:53;100287.47;;;-0.09;82.74
83843;BME280;73869;52.336;21.182;2023-11-21T06:43:22;100289.31;;;-0.09;83.07
83843;BME280;73869;52.336;21.182;2023-11-21T06:45:49;100288.63;;;-0.11;82.73
83843;BME280;73869;52.336;21.182;2023-11-21T06:48:15;100289.63;;;-0.12;82.80
83843;BME280;73869;52.336;21.182;2023-11-21T06:50:42;100288.16;;;-0.24;83.25
83843;BME280;73869;52.336;21.182;2023-11-21T06:53:09;100293.50;;;-0.24;82.98
83843;BME280;73869;52.336;21.182;2023-11-21T06:55:36;100299.00;;;-0.26;83.58
83843;BME280;73869;52.336;21.182;2023-11-21T06:58:03;100295.47;;;-0.26;83.24
83843;BME280;73869;52.336;21.182;2023-11-21T07:00:32;100305.34;;;-0.27;83.66
83843;BME280;73869;52.336;21.182;2023-11-21T07:03:00;100309.19;;;-0.21;82.78
83843;BME280;73869;52.336;21.182;2023-11-21T07:05:27;100307.75;;;-0.16;83.25
83843;BME280;73869;52.336;21.182;2023-11-21T07:07:59;100312.72;;;-0.21;82.77
83843;BME280;73869;52.336;21.182;2023-11-21T07:10:29;100319.59;;;-0.18;82.54
83843;BME280;73869;52.336;21.182;2023-11-21T07:12:56;100328.25;;;-0.16;83.18
83843;BME280;73869;52.336;21.182;2023-11-21T07:15:23;100325.44;;;-0.15;83.32
83843;BME280;73869;52.336;21.182;2023-11-21T07:17:52;100325.28;;;-0.13;82.87
83843;BME280;73869;52.336;21.182;2023-11-21T07:20:19;100330.16;;;-0.26;83.28
83843;BME280;73869;52.336;21.182;2023-11-21T07:22:47;100331.88;;;-0.25;83.15
83843;BME280;73869;52.336;21.182;2023-11-21T07:25:13;100326.59;;;-0.17;83.08
83843;BME280;73869;52.336;21.182;2023-11-21T07:27:40;100332.78;;;-0.17;83.52
83843;BME280;73869;52.336;21.182;2023-11-21T07:30:08;100327.94;;;-0.13;83.85
83843;BME280;73869;52.336;21.182;2023-11-21T07:32:35;100329.44;;;-0.19;83.97
83843;BME280;73869;52.336;21.182;2023-11-21T07:35:04;100329.44;;;-0.19;83.23
83843;BME280;73869;52.336;21.182;2023-11-21T07:37:32;100330.78;;;-0.15;83.20
83843;BME280;73869;52.336;21.182;2023-11-21T07:39:59;100331.47;;;-0.13;83.82
83843;BME280;73869;52.336;21.182;2023-11-21T07:42:26;100334.22;;;-0.22;84.03
83843;BME280;73869;52.336;21.182;2023-11-21T07:44:52;100333.91;;;-0.19;83.43
83843;BME280;73869;52.336;21.182;2023-11-21T07:47:19;100342.47;;;-0.16;83.82
83843;BME280;73869;52.336;21.182;2023-11-21T07:49:46;100337.28;;;-0.17;84.24
83843;BME280;73869;52.336;21.182;2023-11-21T07:52:14;100340.41;;;-0.22;84.10
83843;BME280;73869;52.336;21.182;2023-11-21T07:54:41;100339.72;;;-0.24;84.08
83843;BME280;73869;52.336;21.182;2023-11-21T07:57:08;100341.53;;;-0.24;84.75
83843;BME280;73869;52.336;21.182;2023-11-21T07:59:38;100346.06;;;-0.25;84.29
83843;BME280;73869;52.336;21.182;2023-11-21T08:02:06;100346.06;;;-0.25;84.64
83843;BME280;73869;52.336;21.182;2023-11-21T08:04:33;100347.88;;;-0.25;84.19
83843;BME280;73869;52.336;21.182;2023-11-21T08:07:01;100351.22;;;-0.23;84.86
83843;BME280;73869;52.336;21.182;2023-11-21T08:09:31;100354.06;;;-0.25;84.56
83843;BME280;73869;52.336;21.182;2023-11-21T08:11:58;100345.91;;;-0.23;84.90
83843;BME280;73869;52.336;21.182;2023-11-21T08:14:26;100353.59;;;-0.20;84.30
83843;BME280;73869;52.336;21.182;2023-11-21T08:16:52;100356.25;;;-0.20;84.51
83843;BME280;73869;52.336;21.182;2023-11-21T08:19:23;100350.78;;;-0.19;84.59
83843;BME280;73869;52.336;21.182;2023-11-21T08:21:50;100360.44;;;-0.18;85.04
83843;BME280;73869;52.336;21.182;2023-11-21T08:24:20;100364.50;;;-0.14;84.73
83843;BME280;73869;52.336;21.182;2023-11-21T08:26:48;100365.31;;;-0.13;84.19
83843;BME280;73869;52.336;21.182;2023-11-21T08:29:16;100365.63;;;-0.16;85.07
83843;BME280;73869;52.336;21.182;2023-11-21T08:31:44;100377.00;;;-0.14;84.74
83843;BME280;73869;52.336;21.182;2023-11-21T08:34:12;100376.31;;;-0.16;84.87
83843;BME280;73869;52.336;21.182;2023-11-21T08:36:41;100378.22;;;-0.09;84.42
83843;BME280;73869;52.336;21.182;2023-11-21T08:39:09;100380.06;;;-0.09;84.89
83843;BME280;73869;52.336;21.182;2023-11-21T08:41:36;100386.91;;;-0.24;84.35
83843;BME280;73869;52.336;21.182;2023-11-21T08:44:04;100387.91;;;-0.25;84.57
83843;BME280;73869;52.336;21.182;2023-11-21T08:46:32;100383.84;;;-0.29;84.68
83843;BME280;73869;52.336;21.182;2023-11-21T08:49:00;100385.94;;;-0.23;85.25
83843;BME280;73869;52.336;21.182;2023-11-21T08:51:27;100388.66;;;-0.15;85.10
83843;BME280;73869;52.336;21.182;2023-11-21T08:53:54;100383.88;;;-0.12;84.79
83843;BME280;73869;52.336;21.182;2023-11-21T08:56:24;100382.41;;;-0.06;84.44
83843;BME280;73869;52.336;21.182;2023-11-21T08:58:51;100390.94;;;-0.03;84.58
83843;BME280;73869;52.336;21.182;2023-11-21T09:01:19;100405.97;;;-0.02;84.17
83843;BME280;73869;52.336;21.182;2023-11-21T09:03:46;100399.81;;;-0.02;83.94
83843;BME280;73869;52.336;21.182;2023-11-21T09:06:13;100403.28;;;-0.02;85.10
83843;BME280;73869;52.336;21.182;2023-11-21T09:08:40;100410.34;;;-0.01;84.41
83843;BME280;73869;52.336;21.182;2023-11-21T09:11:07;100412.69;;;0.03;84.52
83843;BME280;73869;52.336;21.182;2023-11-21T09:13:34;100413.94;;;0.08;84.31
83843;BME280;73869;52.336;21.182;2023-11-21T09:16:01;100405.44;;;0.13;84.86
83843;BME280;73869;52.336;21.182;2023-11-21T09:18:30;100409.09;;;0.12;85.25
83843;BME280;73869;52.336;21.182;2023-11-21T09:20:57;100400.09;;;0.13;85.05
83843;BME280;73869;52.336;21.182;2023-11-21T09:23:24;100410.47;;;0.16;85.25
83843;BME280;73869;52.336;21.182;2023-11-21T09:25:50;100411.16;;;0.18;84.47
83843;BME280;73869;52.336;21.182;2023-11-21T09:28:19;100414.00;;;0.16;84.79
83843;BME280;73869;52.336;21.182;2023-11-21T09:30:47;100412.84;;;0.19;84.80
83843;BME280;73869;52.336;21.182;2023-11-21T09:33:16;100409.47;;;0.17;84.77
83843;BME280;73869;52.336;21.182;2023-11-21T09:35:44;100415.13;;;0.14;84.17
83843;BME280;73869;52.336;21.182;2023-11-21T09:38:11;100412.63;;;0.12;84.50
83843;BME280;73869;52.336;21.182;2023-11-21T09:40:38;100420.16;;;0.17;84.67
83843;BME280;73869;52.336;21.182;2023-11-21T09:43:07;100416.88;;;0.05;84.51
83843;BME280;73869;52.336;21.182;2023-11-21T09:45:45;100417.56;;;0.07;84.20
83843;BME280;73869;52.336;21.182;2023-11-21T09:48:13;100419.41;;;0.07;85.08
83843;BME280;73869;52.336;21.182;2023-11-21T09:50:42;100415.91;;;0.06;85.10
83843;BME280;73869;52.336;21.182;2023-11-21T09:53:13;100407.28;;;0.12;84.51
83843;BME280;73869;52.336;21.182;2023-11-21T09:55:44;100419.34;;;0.16;84.92
83843;BME280;73869;52.336;21.182;2023-11-21T09:58:11;100423.97;;;0.14;84.92
83843;BME280;73869;52.336;21.182;2023-11-21T10:00:40;100426.03;;;0.20;84.88
83843;BME280;73869;52.336;21.182;2023-11-21T10:03:07;100421.22;;;0.24;84.30
83843;BME280;73869;52.336;21.182;2023-11-21T10:05:34;100421.78;;;0.27;84.07
83843;BME280;73869;52.336;21.182;2023-11-21T10:08:02;100425.94;;;0.30;84.89
83843;BME280;73869;52.336;21.182;2023-11-21T10:10:32;100438.16;;;0.32;84.71
83843;BME280;73869;52.336;21.182;2023-11-21T10:13:02;100432.53;;;0.35;84.33
83843;BME280;73869;52.336;21.182;2023-11-21T10:15:33;100430.47;;;0.29;84.03
83843;BME280;73869;52.336;21.182;2023-11-21T10:18:02;100434.13;;;0.28;83.64
83843;BME280;73869;52.336;21.182;2023-11-21T10:20:32;100431.06;;;0.23;84.29
83843;BME280;73869;52.336;21.182;2023-11-21T10:23:00;100438.63;;;0.28;83.75
83843;BME280;73869;52.336;21.182;2023-11-21T10:25:29;100432.13;;;0.30;84.01
83843;BME280;73869;52.336;21.182;2023-11-21T10:28:02;100439.47;;;0.28;83.81
83843;BME280;73869;52.336;21.182;2023-11-21T10:30:32;100436.19;;;0.17;82.99
83843;BME280;73869;52.336;21.182;2023-11-21T10:33:03;100439.69;;;0.17;84.01
83843;BME280;73869;52.336;21.182;2023-11-21T10:35:43;100446.13;;;0.24;84.28
83843;BME280;73869;52.336;21.182;2023-11-21T10:38:16;100439.47;;;0.28;84.01
83843;BME280;73869;52.336;21.182;2023-11-21T10:40:46;100444.13;;;0.26;84.30
83843;BME280;73869;52.336;21.182;2023-11-21T10:43:16;100438.16;;;0.32;84.44
83843;BME280;73869;52.336;21.182;2023-11-21T10:45:44;100446.13;;;0.24;84.07
83843;BME280;73869;52.336;21.182;2023-11-21T10:48:13;100443.53;;;0.15;83.55
83843;BME280;73869;52.336;21.182;2023-11-21T10:50:42;100455.41;;;0.20;84.27
83843;BME280;73869;52.336;21.182;2023-11-21T10:53:09;100451.06;;;0.19;83.38
83843;BME280;73869;52.336;21.182;2023-11-21T10:55:37;100448.41;;;0.19;83.82
83843;BME280;73869;52.336;21.182;2023-11-21T10:58:05;100453.66;;;0.11;83.39
83843;BME280;73869;52.336;21.182;2023-11-21T11:00:33;100453.50;;;0.13;83.97
83843;BME280;73869;52.336;21.182;2023-11-21T11:03:00;100450.38;;;0.17;84.09
83843;BME280;73869;52.336;21.182;2023-11-21T11:05:27;100455.56;;;0.19;83.43
83843;BME280;73869;52.336;21.182;2023-11-21T11:07:58;100456.94;;;0.23;84.02
83843;BME280;73869;52.336;21.182;2023-11-21T11:10:27;100458.84;;;0.30;83.93
83843;BME280;73869;52.336;21.182;2023-11-21T11:12:55;100459.69;;;0.31;83.75
83843;BME280;73869;52.336;21.182;2023-11-21T11:15:23;100463.56;;;0.36;83.88
83843;BME280;73869;52.336;21.182;2023-11-21T11:17:51;100465.84;;;0.31;83.75
83843;BME280;73869;52.336;21.182;2023-11-21T11:20:23;100456.41;;;0.19;82.69
83843;BME280;73869;52.336;21.182;2023-11-21T11:22:59;100450.59;;;0.06;84.06
83843;BME280;73869;52.336;21.182;2023-11-21T11:25:46;100457.91;;;0.04;83.04
83843;BME280;73869;52.336;21.182;2023-11-21T11:28:20;100469.28;;;0.06;83.41
83843;BME280;73869;52.336;21.182;2023-11-21T11:30:57;100473.16;;;0.12;83.19
83843;BME280;73869;52.336;21.182;2023-11-21T11:33:37;100463.88;;;0.16;84.30
83843;BME280;73869;52.336;21.182;2023-11-21T11:36:06;100469.91;;;0.18;83.99
83843;BME280;73869;52.336;21.182;2023-11-21T11:38:37;100467.41;;;0.16;83.15
83843;BME280;73869;52.336;21.182;2023-11-21T11:41:05;100477.94;;;0.18;83.57
83843;BME280;73869;52.336;21.182;2023-11-21T11:43:32;100472.13;;;0.22;83.39
83843;BME280;73869;52.336;21.182;2023-11-21T11:46:05;100470.69;;;0.28;83.71
83843;BME280;73869;52.336;21.182;2023-11-21T11:48:37;100473.75;;;0.33;83.74
83843;BME280;73869;52.336;21.182;2023-11-21T11:51:07;100473.34;;;0.28;83.16
83843;BME280;73869;52.336;21.182;2023-11-21T11:53:38;100475.19;;;0.27;83.91
83843;BME280;73869;52.336;21.182;2023-11-21T11:56:22;100472.13;;;0.22;83.58
83843;BME280;73869;52.336;21.182;2023-11-21T11:58:51;100473.56;;;0.17;82.98
83843;BME280;73869;52.336;21.182;2023-11-21T12:01:18;100485.63;;;0.21;83.40
83843;BME280;73869;52.336;21.182;2023-11-21T12:04:23;100486.25;;;0.15;83.80
83843;BME280;73869;52.336;21.182;2023-11-21T12:06:57;100480.59;;;0.18;83.44
83843;BME280;73869;52.336;21.182;2023-11-21T12:09:26;100477.22;;;0.16;83.35
83843;BME280;73869;52.336;21.182;2023-11-21T12:11:53;100471.66;;;0.09;83.90
83843;BME280;73869;52.336;21.182;2023-11-21T12:14:22;100475.72;;;0.13;83.66
83843;BME280;73869;52.336;21.182;2023-11-21T12:16:49;100478.28;;;0.05;83.18
83843;BME280;73869;52.336;21.182;2023-11-21T12:19:18;100482.78;;;0.05;84.23
83843;BME280;73869;52.336;21.182;2023-11-21T12:21:48;100485.56;;;0.13;84.43
83843;BME280;73869;52.336;21.182;2023-11-21T12:24:16;100485.25;;;0.16;83.64
83843;BME280;73869;52.336;21.182;2023-11-21T12:26:43;100493.41;;;0.14;83.83
83843;BME280;73869;52.336;21.182;2023-11-21T12:29:10;100487.91;;;0.16;83.92
83843;BME280;73869;52.336;21.182;2023-11-21T12:31:37;100505.31;;;0.20;83.83
83843;BME280;73869;52.336;21.182;2023-11-21T12:34:05;100504.00;;;0.24;84.09
83843;BME280;73869;52.336;21.182;2023-11-21T12:36:34;100503.88;;;0.25;84.01
83843;BME280;73869;52.336;21.182;2023-11-21T12:39:02;100506.91;;;0.30;84.17
83843;BME280;73869;52.336;21.182;2023-11-21T12:41:29;100506.91;;;0.30;83.71
83843;BME280;73869;52.336;21.182;2023-11-21T12:43:57;100501.56;;;0.30;84.18
83843;BME280;73869;52.336;21.182;2023-11-21T12:46:24;100509.28;;;0.33;83.47
83843;BME280;73869;52.336;21.182;2023-11-21T12:48:54;100507.63;;;0.32;83.29
83843;BME280;73869;52.336;21.182;2023-11-21T12:51:22;100505.63;;;0.34;83.60
83843;BME280;73869;52.336;21.182;2023-11-21T12:53:50;100504.94;;;0.32;83.07